SBJP/JPA METAR and TAF weather

Enter ICAO airport designator
Station Type Date Time Source
SBJP METAR 2022/08/12 15:00 UTC NOAA

SBJP 121500Z 10011KT 9999 BKN030 29/22 Q1017


Station Type Date Time Source
SBJP Decoded METAR 2022/08/12 15:00 UTC NOAA

Joao Pessoa, Brazil (SBJP) 07-06S 034-52W
Aug 12, 2022 - 11:00 AM EDT / 2022.08.12 1500 UTC
Wind: from the E (100 degrees) at 13 MPH (11 KT):0
Visibility: greater than 7 mile(s):0
Sky conditions: mostly cloudy
Temperature: 84 F (29 C)
Dew Point: 71 F (22 C)
Relative Humidity: 65%
Pressure (altimeter): 30.03 in. Hg (1017 hPa)
ob: SBJP 121500Z 10011KT 9999 BKN030 29/22 Q1017
cycle: 15

Station Type Date Time Source
SBJP TAF 2022/08/12 18:09 UTC NOAA

TAF TAF SBJP 121500Z 1218/1318 11010KT 9999 SCT025 TN22/1307Z TX29/1316Z
BECMG 1300/1302 18005KT FEW025
BECMG 1311/1313 14010KT SCT025
BECMG 1314/1316 11010KT SCT030
RMK PHD

Example: see airport list